Main page
METAR-TAF:

METAR-TAF

Airports :

Leite Lopes Airport

Ribeirão Preto, São Paulo, Brazil

latitude: 21-08S, longitude: 047-47W, elevation: 549 m

Current weather observation

The report was made 25 minutes ago, at 14:00 UTC
Wind 4 kt from the East/Southeast
Temperature 27°C
Humidity 39%
Pressure 1022 hPa
Visibility 10 km or more
no clouds below 1500 m and no cumulonimbus

METAR: SBRP 181400Z 12004KT CAVOK 27/12 Q1022

Time: 11:25 (14:25 UTC)

Forecast

The report was made 4 hours and 43 minutes ago, at 09:42 UTC
Forecast valid from 18 at 12 UTC to 19 at 12 UTC
Wind 4 kt from the East/Southeast
Visibility 10 km or more
no clouds below 1500 m and no cumulonimbus
Becoming
from 18 at 12 UTC to 18 at 14 UTC
Wind 9 kt from the East
Becoming
from 18 at 19 UTC to 18 at 21 UTC
Wind 4 kt from the East
Probability 30%
from 19 at 06 UTC to 19 at 12 UTC
Visibility: 6000 m

TAF: SBRP 180942Z 1812/1912 11004KT CAVOK TN12/1812Z TX30/1818Z BECMG 1812/1814 08009KT BECMG 1819/1821 10004KT PROB30 1906/1912 6000 RMK PHM

Weather observations and forecasts of more than 4000 airports (METAR and TAF reports).

The available stations are represented by yellow and red dots on the map.

Hover mouse over dot to see the name of the station.

Then click to see weather observations and forecasts.

To change the map : click on the green buttons with a black cross to zoom in, on the green button with a dash to zoom out, or on the green arrows for adjacent maps.


METAR-TAF: